createdAt,value
2022-10-08T00:01:10.690Z,94871.91
2022-10-08T00:03:40.905Z,94869.16
2022-10-08T00:06:08.903Z,94869.88
2022-10-08T00:08:37.587Z,94866.03
2022-10-08T00:11:09.710Z,94865.38
2022-10-08T00:13:42.616Z,94864.75
2022-10-08T00:16:23.247Z,94867.28
2022-10-08T00:18:51.994Z,94859.44
2022-10-08T00:21:25.083Z,94860.00
2022-10-08T00:23:53.185Z,94857.19
2022-10-08T00:26:24.359Z,94850.25
2022-10-08T00:28:53.875Z,94853.91
2022-10-08T00:31:29.588Z,94847.16
2022-10-08T00:33:57.933Z,94848.09
2022-10-08T00:36:26.515Z,94851.47
2022-10-08T00:39:01.158Z,94846.09
2022-10-08T00:41:30.363Z,94841.38
2022-10-08T00:43:59.479Z,94843.88
2022-10-08T00:46:30.990Z,94845.16
2022-10-08T00:49:11.641Z,94839.72
2022-10-08T00:51:49.839Z,94829.13
2022-10-08T00:54:19.405Z,94832.59
2022-10-08T00:56:51.248Z,94826.81
2022-10-08T00:59:18.120Z,94831.38
2022-10-08T01:01:44.884Z,94829.97
2022-10-08T01:04:13.704Z,94825.50
2022-10-08T01:06:40.235Z,94819.59
2022-10-08T01:09:18.827Z,94823.81
2022-10-08T01:12:06.031Z,94811.19
2022-10-08T01:14:47.576Z,94807.69
2022-10-08T01:17:23.257Z,94804.88
2022-10-08T01:20:01.284Z,94811.91
2022-10-08T01:22:29.897Z,94794.81
2022-10-08T01:25:37.758Z,94792.84
2022-10-08T01:28:17.813Z,94789.13
2022-10-08T01:31:07.056Z,94794.41
2022-10-08T01:33:43.057Z,94790.19
2022-10-08T01:36:13.131Z,94791.22
2022-10-08T01:38:44.902Z,94786.53
2022-10-08T01:41:13.700Z,94782.13
2022-10-08T01:43:46.239Z,94780.72
2022-10-08T01:46:32.799Z,94774.94
2022-10-08T01:49:07.546Z,94778.75
2022-10-08T01:51:42.221Z,94779.94
2022-10-08T01:54:13.721Z,94777.38
2022-10-08T01:56:43.345Z,94779.09
2022-10-08T01:59:19.186Z,94772.31
2022-10-08T02:02:06.829Z,94776.84
2022-10-08T02:04:33.868Z,94780.31
2022-10-08T02:07:08.363Z,94781.63
2022-10-08T02:09:41.362Z,94783.03
2022-10-08T02:12:09.446Z,94786.06
2022-10-08T02:14:40.253Z,94798.75
2022-10-08T02:17:52.220Z,94793.19
2022-10-08T02:20:21.322Z,94790.91
2022-10-08T02:23:14.147Z,94783.56
2022-10-08T02:25:49.412Z,94784.28
2022-10-08T02:28:16.043Z,94783.34
2022-10-08T02:31:10.623Z,94784.47
2022-10-08T02:33:44.499Z,94781.22
2022-10-08T02:36:14.768Z,94785.22
2022-10-08T02:38:54.539Z,94787.22
2022-10-08T02:41:28.755Z,94779.84
2022-10-08T02:43:59.686Z,94780.25
2022-10-08T02:46:30.276Z,94788.00
2022-10-08T02:49:03.067Z,94778.16
2022-10-08T02:51:32.035Z,94771.13
2022-10-08T02:53:59.562Z,94774.59
2022-10-08T02:56:38.933Z,94768.00
2022-10-08T02:59:06.297Z,94772.66
2022-10-08T03:01:44.190Z,94779.34
2022-10-08T03:04:28.574Z,94774.94
2022-10-08T03:06:57.314Z,94777.34
2022-10-08T03:09:26.206Z,94779.50
2022-10-08T03:11:53.947Z,94777.44
2022-10-08T03:14:22.438Z,94777.03
2022-10-08T03:16:49.249Z,94774.31
2022-10-08T03:19:18.010Z,94776.63
2022-10-08T03:21:47.176Z,94778.88
2022-10-08T03:24:15.464Z,94772.94
2022-10-08T03:26:42.701Z,94779.69
2022-10-08T03:29:09.462Z,94778.56
2022-10-08T03:31:36.590Z,94771.63
2022-10-08T03:34:03.528Z,94771.72
2022-10-08T03:36:30.219Z,94773.16
2022-10-08T03:38:57.570Z,94767.72
2022-10-08T03:41:24.181Z,94765.31
2022-10-08T03:43:50.800Z,94768.19
2022-10-08T03:46:17.703Z,94768.94
2022-10-08T03:48:49.200Z,94772.91
2022-10-08T03:51:16.948Z,94770.38
2022-10-08T03:53:44.633Z,94760.81
2022-10-08T03:56:17.614Z,94763.75
2022-10-08T03:58:44.374Z,94770.78
2022-10-08T04:01:14.825Z,94767.81
2022-10-08T04:03:41.822Z,94769.81
2022-10-08T04:06:09.055Z,94766.94
2022-10-08T04:08:44.513Z,94756.47
2022-10-08T04:14:03.336Z,94755.53
2022-10-08T04:16:30.011Z,94762.88
2022-10-08T04:18:56.852Z,94759.59
2022-10-08T04:21:23.492Z,94761.34
2022-10-08T04:23:50.254Z,94758.63
2022-10-08T04:26:17.453Z,94771.81
2022-10-08T04:28:45.136Z,94767.53
2022-10-08T04:31:23.371Z,94757.53
2022-10-08T04:33:51.723Z,94759.03
2022-10-08T04:36:21.165Z,94761.63
2022-10-08T04:38:48.314Z,94763.47
2022-10-08T04:41:18.858Z,94758.94
2022-10-08T04:43:46.574Z,94762.50
2022-10-08T04:46:15.606Z,94760.63
2022-10-08T04:48:47.500Z,94764.72
2022-10-08T04:51:16.917Z,94767.44
2022-10-08T04:53:44.123Z,94772.34
2022-10-08T04:56:20.116Z,94765.66
2022-10-08T04:58:47.487Z,94765.22
2022-10-08T05:01:17.495Z,94767.84
2022-10-08T05:03:47.616Z,94771.34
2022-10-08T05:06:16.560Z,94762.97
2022-10-08T05:08:44.430Z,94775.25
2022-10-08T05:11:11.968Z,94770.47
2022-10-08T05:13:38.964Z,94766.84
2022-10-08T05:16:11.505Z,94755.25
2022-10-08T05:18:39.835Z,94766.53
2022-10-08T05:21:14.604Z,94769.19
2022-10-08T05:23:44.877Z,94770.16
2022-10-08T05:26:46.225Z,94772.03
2022-10-08T05:29:11.743Z,94763.16
2022-10-08T05:31:38.872Z,94768.50
2022-10-08T05:34:05.896Z,94771.72
2022-10-08T05:36:34.535Z,94776.91
2022-10-08T05:39:03.443Z,94770.09
2022-10-08T05:41:32.382Z,94776.50
2022-10-08T05:44:02.007Z,94772.25
2022-10-08T05:46:31.162Z,94767.56
2022-10-08T05:49:00.779Z,94770.88
2022-10-08T05:51:28.371Z,94772.25
2022-10-08T05:53:59.560Z,94774.22
2022-10-08T05:56:27.476Z,94770.81
2022-10-08T05:58:54.862Z,94768.63
2022-10-08T06:01:24.446Z,94775.63
2022-10-08T06:03:52.854Z,94765.41
2022-10-08T06:06:20.446Z,94774.94
2022-10-08T06:08:47.485Z,94768.69
2022-10-08T06:11:14.282Z,94768.84
2022-10-08T06:13:40.920Z,94766.41
2022-10-08T06:16:10.207Z,94772.31
2022-10-08T06:18:40.038Z,94768.13
2022-10-08T06:21:09.137Z,94775.59
2022-10-08T06:23:36.433Z,94766.47
2022-10-08T06:26:09.627Z,94771.72
2022-10-08T06:28:38.077Z,94773.91
2022-10-08T06:31:06.148Z,94768.47
2022-10-08T06:33:33.440Z,94764.22
2022-10-08T06:36:19.342Z,94767.13
2022-10-08T06:38:53.769Z,94766.47
2022-10-08T06:41:20.991Z,94767.00
2022-10-08T06:43:47.882Z,94769.31
2022-10-08T06:46:16.168Z,94770.69
2022-10-08T06:48:43.151Z,94765.84
2022-10-08T06:51:15.179Z,94764.31
2022-10-08T06:53:43.187Z,94766.06
2022-10-08T06:56:14.523Z,94766.78
2022-10-08T06:58:42.500Z,94767.69
2022-10-08T07:01:16.953Z,94764.03
2022-10-08T07:03:44.029Z,94771.22
2022-10-08T07:06:12.603Z,94767.25
2022-10-08T07:08:39.596Z,94772.56
2022-10-08T07:11:07.036Z,94775.25
2022-10-08T07:13:34.505Z,94773.47
2022-10-08T07:16:11.597Z,94781.09
2022-10-08T07:18:39.744Z,94771.94
2022-10-08T07:21:08.145Z,94771.16
2022-10-08T07:23:34.973Z,94776.63
2022-10-08T07:26:19.011Z,94772.28
2022-10-08T07:28:51.740Z,94765.75
2022-10-08T07:31:20.640Z,94767.63
2022-10-08T07:33:47.894Z,94763.53
2022-10-08T07:36:18.056Z,94767.25
2022-10-08T07:38:45.358Z,94763.59
2022-10-08T07:41:13.019Z,94757.03
2022-10-08T07:43:41.358Z,94759.94
2022-10-08T07:46:12.287Z,94763.28
2022-10-08T07:48:39.457Z,94760.94
2022-10-08T07:51:09.950Z,94764.16
2022-10-08T07:53:37.081Z,94762.50
2022-10-08T07:56:05.394Z,94751.03
2022-10-08T07:58:32.314Z,94755.03
2022-10-08T08:01:00.807Z,94754.53
2022-10-08T08:03:27.469Z,94756.91
2022-10-08T08:05:54.482Z,94747.22
2022-10-08T08:08:25.412Z,94749.72
2022-10-08T08:10:59.907Z,94748.59
2022-10-08T08:13:30.749Z,94747.22
2022-10-08T08:16:02.328Z,94746.00
2022-10-08T08:18:30.860Z,94742.13
2022-10-08T08:20:59.213Z,94735.13
2022-10-08T08:23:30.488Z,94727.50
2022-10-08T08:26:01.060Z,94734.22
2022-10-08T08:28:28.836Z,94731.97
2022-10-08T08:31:06.623Z,94731.75
2022-10-08T08:33:33.184Z,94724.31
2022-10-08T08:35:59.773Z,94732.06
2022-10-08T08:38:26.329Z,94731.81
2022-10-08T08:40:57.124Z,94729.50
2022-10-08T08:43:25.330Z,94728.59
2022-10-08T08:45:52.008Z,94727.00
2022-10-08T08:48:18.583Z,94725.38
2022-10-08T08:50:48.908Z,94716.34
2022-10-08T08:53:15.878Z,94716.59
2022-10-08T08:55:45.603Z,94717.31
2022-10-08T08:58:36.875Z,94723.03
2022-10-08T09:01:09.160Z,94706.91
2022-10-08T09:03:44.035Z,94710.84
2022-10-08T09:06:14.572Z,94708.78
2022-10-08T09:08:46.902Z,94713.97
2022-10-08T09:11:18.563Z,94704.84
2022-10-08T09:13:50.726Z,94703.19
2022-10-08T09:16:18.257Z,94702.00
2022-10-08T09:18:50.040Z,94698.88
2022-10-08T09:21:17.546Z,94700.09
2022-10-08T09:23:44.768Z,94698.00
2022-10-08T09:26:19.742Z,94696.16
2022-10-08T09:28:55.583Z,94693.38
2022-10-08T09:31:30.189Z,94694.81
2022-10-08T09:34:05.742Z,94687.63
2022-10-08T09:36:40.655Z,94683.72
2022-10-08T09:39:19.110Z,94673.22
2022-10-08T09:41:47.418Z,94680.19
2022-10-08T09:44:21.446Z,94672.53
2022-10-08T09:46:53.796Z,94664.47
2022-10-08T09:49:31.088Z,94661.88
2022-10-08T09:52:02.059Z,94666.50
2022-10-08T09:54:34.409Z,94666.31
2022-10-08T09:57:01.935Z,94662.56
2022-10-08T09:59:32.866Z,94661.00
2022-10-08T10:01:59.575Z,94654.91
2022-10-08T10:04:38.489Z,94659.34
2022-10-08T10:07:06.027Z,94653.09
2022-10-08T10:09:44.879Z,94649.63
2022-10-08T10:12:29.816Z,94644.41
2022-10-08T10:15:11.081Z,94639.44
2022-10-08T10:18:02.370Z,94629.59
2022-10-08T10:20:46.322Z,94627.06
2022-10-08T10:23:25.687Z,94627.50
2022-10-08T10:25:57.495Z,94623.63
2022-10-08T10:28:41.425Z,94623.03
2022-10-08T10:31:18.222Z,94623.91
2022-10-08T10:34:01.739Z,94616.66
2022-10-08T10:36:49.370Z,94610.09
2022-10-08T10:39:42.711Z,94614.34
2022-10-08T10:42:43.362Z,94611.66
2022-10-08T10:45:23.465Z,94613.56
2022-10-08T10:47:53.307Z,94603.41
2022-10-08T10:50:29.845Z,94598.84
2022-10-08T10:53:20.893Z,94588.03
2022-10-08T10:56:04.098Z,94579.91
2022-10-08T10:59:04.128Z,94582.22
2022-10-08T11:01:49.349Z,94581.47
2022-10-08T11:04:41.099Z,94580.25
2022-10-08T11:07:13.763Z,94567.09
2022-10-08T11:09:50.816Z,94564.44
2022-10-08T11:12:51.059Z,94554.34
2022-10-08T11:15:17.680Z,94558.63
2022-10-08T11:17:46.914Z,94554.38
2022-10-08T11:20:39.486Z,94550.44
2022-10-08T11:23:19.604Z,94553.56
2022-10-08T11:26:19.071Z,94544.97
2022-10-08T11:29:01.073Z,94542.63
2022-10-08T11:31:27.691Z,94537.13
2022-10-08T11:33:56.407Z,94536.91
2022-10-08T11:36:48.596Z,94541.97
2022-10-08T11:39:25.814Z,94534.84
2022-10-08T11:42:15.408Z,94529.34
2022-10-08T11:44:42.205Z,94523.56
2022-10-08T11:47:36.736Z,94516.56
2022-10-08T11:50:05.650Z,94514.63
2022-10-08T11:52:34.242Z,94511.91
2022-10-08T11:55:02.155Z,94513.00
2022-10-08T11:58:02.932Z,94505.31
2022-10-08T12:00:38.158Z,94504.59
2022-10-08T12:03:18.625Z,94499.06
2022-10-08T12:05:50.936Z,94498.97
2022-10-08T12:08:48.650Z,94493.66
2022-10-08T12:11:37.528Z,94492.13
2022-10-08T12:14:13.405Z,94489.34
2022-10-08T12:16:49.344Z,94481.41
2022-10-08T12:19:34.877Z,94485.50
2022-10-08T12:22:03.038Z,94476.34
2022-10-08T12:24:38.515Z,94472.78
2022-10-08T12:27:17.251Z,94466.50
2022-10-08T12:30:16.678Z,94471.81
2022-10-08T12:32:43.422Z,94460.47
2022-10-08T12:35:38.026Z,94451.06
2022-10-08T12:38:07.613Z,94453.88
2022-10-08T12:40:40.845Z,94456.50
2022-10-08T12:43:32.526Z,94458.41
2022-10-08T12:46:20.941Z,94456.22
2022-10-08T12:49:26.586Z,94453.00
2022-10-08T12:52:15.837Z,94449.13
2022-10-08T12:54:57.374Z,94441.84
2022-10-08T12:57:37.805Z,94447.72
2022-10-08T13:00:09.225Z,94437.13
2022-10-08T13:02:43.547Z,94442.56
2022-10-08T13:05:34.047Z,94437.38
2022-10-08T13:08:20.712Z,94428.44
2022-10-08T13:10:47.362Z,94428.16
2022-10-08T13:13:35.648Z,94427.59
2022-10-08T13:16:04.305Z,94427.47
2022-10-08T13:18:33.140Z,94430.63
2022-10-08T13:21:02.189Z,94430.06
2022-10-08T13:23:40.483Z,94428.53
2022-10-08T13:26:43.767Z,94430.63
2022-10-08T13:29:28.316Z,94421.38
2022-10-08T13:32:05.639Z,94422.53
2022-10-08T13:34:43.501Z,94429.56
2022-10-08T13:37:21.682Z,94421.41
2022-10-08T13:40:13.177Z,94418.53
2022-10-08T13:42:42.891Z,94419.31
2022-10-08T13:45:24.747Z,94419.03
2022-10-08T13:47:51.727Z,94414.97
2022-10-08T13:50:20.079Z,94411.91
2022-10-08T13:52:53.732Z,94410.16
2022-10-08T13:55:32.935Z,94405.50
2022-10-08T13:58:04.496Z,94408.09
2022-10-08T14:00:33.533Z,94406.19
2022-10-08T14:03:00.145Z,94399.25
2022-10-08T14:05:32.981Z,94399.00
2022-10-08T14:08:04.130Z,94395.97
2022-10-08T14:10:31.217Z,94401.25
2022-10-08T14:12:57.967Z,94398.19
2022-10-08T14:15:24.728Z,94393.16
2022-10-08T14:17:53.364Z,94388.44
2022-10-08T14:20:20.062Z,94390.34
2022-10-08T14:22:46.674Z,94398.53
2022-10-08T14:25:19.389Z,94399.44
2022-10-08T14:27:47.000Z,94386.19
2022-10-08T14:30:15.195Z,94393.25
2022-10-08T14:32:42.444Z,94397.56
2022-10-08T14:35:09.827Z,94393.69
2022-10-08T14:37:37.059Z,94394.47
2022-10-08T14:40:06.909Z,94389.03
2022-10-08T14:42:33.459Z,94397.69
2022-10-08T14:45:01.130Z,94391.47
2022-10-08T14:47:27.664Z,94385.34
2022-10-08T14:49:54.754Z,94389.19
2022-10-08T14:52:21.361Z,94390.00
2022-10-08T14:54:47.990Z,94386.16
2022-10-08T14:57:14.634Z,94385.50
2022-10-08T14:59:41.380Z,94390.50
2022-10-08T15:02:12.030Z,94385.50
2022-10-08T15:04:39.066Z,94387.81
2022-10-08T15:07:06.041Z,94384.75
2022-10-08T15:09:32.797Z,94385.94
2022-10-08T15:11:59.358Z,94390.63
2022-10-08T15:14:25.994Z,94391.00
2022-10-08T15:16:52.769Z,94386.00
2022-10-08T15:19:23.853Z,94388.41
2022-10-08T15:21:50.990Z,94393.03
2022-10-08T15:24:17.739Z,94388.81
2022-10-08T15:26:44.366Z,94392.91
2022-10-08T15:29:11.005Z,94397.28
2022-10-08T15:31:37.628Z,94393.09
2022-10-08T15:34:04.281Z,94387.31
2022-10-08T15:36:37.063Z,94388.50
2022-10-08T15:39:13.496Z,94393.53
2022-10-08T15:41:42.360Z,94390.44
2022-10-08T15:44:19.244Z,94400.88
2022-10-08T15:46:47.010Z,94397.41
2022-10-08T15:49:13.895Z,94400.88
2022-10-08T15:51:40.841Z,94396.97
2022-10-08T15:54:08.263Z,94399.31
2022-10-08T15:56:35.507Z,94391.94
2022-10-08T15:59:02.716Z,94392.72
2022-10-08T16:01:29.837Z,94402.00
2022-10-08T16:03:58.140Z,94391.19
2022-10-08T16:06:33.050Z,94398.13
2022-10-08T16:09:08.837Z,94398.13
2022-10-08T16:11:35.592Z,94402.00
2022-10-08T16:14:06.252Z,94402.00
2022-10-08T16:16:33.177Z,94399.66
2022-10-08T16:19:02.045Z,94403.91
2022-10-08T16:21:30.518Z,94410.47
2022-10-08T16:23:57.957Z,94407.75
2022-10-08T16:26:25.592Z,94409.31
2022-10-08T16:28:57.517Z,94419.66
2022-10-08T16:31:26.190Z,94415.03
2022-10-08T16:34:01.020Z,94432.03
2022-10-08T16:36:29.823Z,94432.50
2022-10-08T16:38:56.610Z,94442.44
2022-10-08T16:41:25.912Z,94438.59
2022-10-08T16:43:57.909Z,94437.94
2022-10-08T16:46:30.101Z,94433.41
2022-10-08T16:49:02.111Z,94438.56
2022-10-08T16:51:31.536Z,94436.50
2022-10-08T16:54:00.016Z,94431.31
2022-10-08T16:56:29.893Z,94434.09
2022-10-08T16:58:58.841Z,94431.72
2022-10-08T17:01:26.077Z,94443.31
2022-10-08T17:03:53.634Z,94439.09
2022-10-08T17:06:22.455Z,94445.66
2022-10-08T17:08:50.279Z,94449.50
2022-10-08T17:11:17.351Z,94453.38
2022-10-08T17:13:49.168Z,94450.34
2022-10-08T17:16:18.057Z,94456.41
2022-10-08T17:18:45.322Z,94459.47
2022-10-08T17:21:13.253Z,94454.47
2022-10-08T17:23:40.346Z,94462.47
2022-10-08T17:26:11.602Z,94464.81
2022-10-08T17:28:41.072Z,94469.41
2022-10-08T17:31:10.828Z,94466.34
2022-10-08T17:33:37.718Z,94461.72
2022-10-08T17:36:16.995Z,94464.03
2022-10-08T17:38:45.336Z,94461.72
2022-10-08T17:41:29.131Z,94461.31
2022-10-08T17:43:56.913Z,94463.69
2022-10-08T17:46:26.738Z,94473.25
2022-10-08T17:51:58.487Z,94467.13
2022-10-08T17:54:25.062Z,94476.00
2022-10-08T17:56:54.517Z,94475.63
2022-10-08T17:59:24.193Z,94469.09
2022-10-08T18:01:51.029Z,94472.13
2022-10-08T18:04:19.611Z,94467.84
2022-10-08T18:06:47.777Z,94473.19
2022-10-08T18:09:18.381Z,94471.53
2022-10-08T18:11:47.508Z,94473.56
2022-10-08T18:14:14.253Z,94471.63
2022-10-08T18:16:44.270Z,94472.84
2022-10-08T18:19:13.664Z,94477.78
2022-10-08T18:21:40.284Z,94482.81
2022-10-08T18:24:06.883Z,94475.47
2022-10-08T18:26:39.338Z,94486.25
2022-10-08T18:29:09.278Z,94481.22
2022-10-08T18:31:38.211Z,94486.84
2022-10-08T18:34:08.017Z,94481.09
2022-10-08T18:36:37.243Z,94481.09
2022-10-08T18:39:27.543Z,94486.78
2022-10-08T18:41:57.676Z,94486.78
2022-10-08T18:44:25.725Z,94489.13
2022-10-08T18:46:52.909Z,94484.44
2022-10-08T18:49:28.974Z,94485.56
2022-10-08T18:51:56.851Z,94484.38
2022-10-08T18:54:24.370Z,94485.88
2022-10-08T18:56:50.988Z,94487.91
2022-10-08T18:59:17.833Z,94486.75
2022-10-08T19:01:47.311Z,94487.16
2022-10-08T19:04:20.191Z,94484.38
2022-10-08T19:06:48.736Z,94489.03
2022-10-08T19:09:24.093Z,94489.84
2022-10-08T19:11:53.748Z,94490.97
2022-10-08T19:14:29.219Z,94494.41
2022-10-08T19:16:55.821Z,94507.16
2022-10-08T19:19:25.260Z,94511.34
2022-10-08T19:21:54.359Z,94505.56
2022-10-08T19:24:23.206Z,94513.31
2022-10-08T19:26:51.010Z,94517.53
2022-10-08T19:29:29.103Z,94519.06
2022-10-08T19:31:56.406Z,94523.31
2022-10-08T19:34:24.889Z,94520.63
2022-10-08T19:36:52.252Z,94515.59
2022-10-08T19:39:24.595Z,94519.78
2022-10-08T19:41:51.404Z,94522.16
2022-10-08T19:44:18.884Z,94526.81
2022-10-08T19:46:45.794Z,94518.28
2022-10-08T19:49:12.990Z,94522.91
2022-10-08T19:51:40.238Z,94528.34
2022-10-08T19:54:07.103Z,94519.44
2022-10-08T19:56:33.809Z,94520.56
2022-10-08T19:59:00.426Z,94521.22
2022-10-08T20:01:30.215Z,94522.03
2022-10-08T20:03:58.997Z,94514.69
2022-10-08T20:06:28.671Z,94528.88
2022-10-08T20:09:10.122Z,94522.25
2022-10-08T20:11:43.259Z,94524.19
2022-10-08T20:14:10.445Z,94533.44
2022-10-08T20:16:39.963Z,94531.19
2022-10-08T20:19:12.037Z,94531.91
2022-10-08T20:21:38.686Z,94535.78
2022-10-08T20:24:06.384Z,94527.72
2022-10-08T20:26:38.907Z,94526.09
2022-10-08T20:29:08.326Z,94529.69
2022-10-08T20:31:37.111Z,94532.75
2022-10-08T20:34:11.568Z,94528.78
2022-10-08T20:36:38.607Z,94533.47
2022-10-08T20:39:05.808Z,94535.03
2022-10-08T20:41:32.504Z,94533.00
2022-10-08T20:44:02.364Z,94538.72
2022-10-08T20:46:29.543Z,94539.91
2022-10-08T20:48:56.207Z,94544.38
2022-10-08T20:51:25.998Z,94535.91
2022-10-08T20:53:57.756Z,94529.03
2022-10-08T20:56:25.343Z,94532.47
2022-10-08T20:58:52.607Z,94529.13
2022-10-08T21:01:21.657Z,94539.91
2022-10-08T21:03:48.372Z,94540.31
2022-10-08T21:06:23.880Z,94540.97
2022-10-08T21:08:53.103Z,94541.06
2022-10-08T21:11:22.394Z,94538.75
2022-10-08T21:13:49.282Z,94546.78
2022-10-08T21:16:19.001Z,94539.81
2022-10-08T21:18:50.235Z,94542.81
2022-10-08T21:21:17.604Z,94535.38
2022-10-08T21:23:44.682Z,94544.38
2022-10-08T21:26:17.976Z,94535.38
2022-10-08T21:28:46.850Z,94535.44
2022-10-08T21:31:14.420Z,94534.88
2022-10-08T21:33:46.465Z,94531.75
2022-10-08T21:36:22.367Z,94522.13
2022-10-08T21:38:49.401Z,94523.16
2022-10-08T21:41:17.926Z,94527.72
2022-10-08T21:43:56.798Z,94531.38
2022-10-08T21:46:26.326Z,94528.91
2022-10-08T21:48:55.109Z,94520.31
2022-10-08T21:51:22.310Z,94521.59
2022-10-08T21:53:52.092Z,94514.34
2022-10-08T21:56:22.797Z,94516.13
2022-10-08T21:58:52.513Z,94514.34
2022-10-08T22:01:27.146Z,94514.81
2022-10-08T22:03:55.481Z,94521.72
2022-10-08T22:06:22.937Z,94516.94
2022-10-08T22:08:49.925Z,94517.06
2022-10-08T22:11:16.882Z,94507.59
2022-10-08T22:13:43.928Z,94503.00
2022-10-08T22:16:12.882Z,94503.63
2022-10-08T22:18:39.941Z,94499.34
2022-10-08T22:21:10.983Z,94506.97
2022-10-08T22:23:37.801Z,94503.00
2022-10-08T22:26:11.117Z,94501.97
2022-10-08T22:28:39.082Z,94501.72
2022-10-08T22:31:07.933Z,94503.19
2022-10-08T22:33:35.330Z,94491.09
2022-10-08T22:36:07.701Z,94498.38
2022-10-08T22:38:36.751Z,94489.72
2022-10-08T22:41:12.012Z,94494.53
2022-10-08T22:43:40.164Z,94497.56
2022-10-08T22:46:10.049Z,94488.50
2022-10-08T22:48:37.455Z,94484.25
2022-10-08T22:51:07.782Z,94491.81
2022-10-08T22:53:35.096Z,94485.34
2022-10-08T22:56:10.481Z,94486.03
2022-10-08T22:58:37.046Z,94478.84
2022-10-08T23:01:08.808Z,94485.75
2022-10-08T23:03:36.506Z,94489.69
2022-10-08T23:06:04.547Z,94491.22
2022-10-08T23:08:31.595Z,94489.69
2022-10-08T23:10:58.594Z,94488.09
2022-10-08T23:13:25.727Z,94499.25
2022-10-08T23:16:06.573Z,94496.50
2022-10-08T23:18:36.332Z,94499.16
2022-10-08T23:21:09.429Z,94501.22
2022-10-08T23:23:36.327Z,94509.09
2022-10-08T23:26:05.458Z,94515.91
2022-10-08T23:28:34.055Z,94516.13
2022-10-08T23:31:08.740Z,94511.13
2022-10-08T23:33:38.269Z,94512.59
2022-10-08T23:36:19.826Z,94516.00
2022-10-08T23:38:46.865Z,94512.69
2022-10-08T23:41:13.558Z,94512.25
2022-10-08T23:43:43.033Z,94509.94
2022-10-08T23:46:12.213Z,94513.22
2022-10-08T23:48:39.604Z,94517.09
2022-10-08T23:51:07.042Z,94524.72
2022-10-08T23:53:34.751Z,94527.28
2022-10-08T23:56:01.820Z,94515.72
2022-10-08T23:58:28.424Z,94524.72
